AGROMETEOROLOŠKI PORTAL

Vinorodna pokrajina

Temelj dobrega kmetovanja.

Pregled podatkov za lokacijo Valeta DRSI, meteorološka postaja 50

Pregled senzorjev na lokaciji

ID Ime Zadnja
vrednost
Datum in čas
meritve
(lokalni čas)
Tip
senzorja
6274 Zračni tlak (hPa) 989 hPa 23.2.2024 20:00 DRSI
6271 Relativna zračna vlaga (2 m) (% RH) 99 % RH 23.2.2024 20:00 DRSI
6270 Temperatura (2 m) (°C) 9,2 °C 23.2.2024 20:00 DRSI
6273 Smer vetra (2 m) (°) 315 ° 23.2.2024 20:00 DRSI
6272 Hitrost vetra (2 m) (km/h) 2 km/h 23.2.2024 20:00 DRSI

Pregled podatkov zadnjih 24 ur

Zap.
št.
Datum in čas
(lokalni čas)
Valeta DRSI
Zračni
tlak
Relativna
zračna
vlaga
(2
m)
Temperatura
(2
m)
Smer
vetra
(2
m)
Hitrost
vetra
(2
m)
1 23.2.2024 20:00 988,5 99 9,2 315 1,7
2 23.2.2024 19:30 988,2 99 9,2 225 1,7
3 23.2.2024 19:00 987,9 98,7 9,4 315 5,3
4 23.2.2024 18:30 985,9 95 10,8 270 6,4
5 23.2.2024 18:00 985,2 93,3 11,3 260,3 5,6
6 23.2.2024 17:30 985,2 91 11,5 202 7,7
7 23.2.2024 17:00 985,2 86 12,1 270 6,4
8 23.2.2024 16:30 984,6 83,7 12,4 213,5 6
9 23.2.2024 16:00 985,2 87 11,9 247,5 9,4
10 23.2.2024 15:30 986,2 88 11,8 247,5 5,4
11 23.2.2024 15:00 986,2 86 12,1 270 9
12 23.2.2024 14:30 986,2 79,3 12,9 225 4
13 23.2.2024 14:00 986,9 77,3 13,1 303,5 3,2
14 23.2.2024 13:30 987,2 77 13,1 225 3,4
15 23.2.2024 13:00 987,9 81,7 12,3 180 2,8
16 23.2.2024 12:30 988,2 81,3 12,2 256,5 7,9
17 23.2.2024 12:00 988,2 76,7 12,7 292 5,6
18 23.2.2024 11:30 988,2 75,7 12,5 270 11,3
19 23.2.2024 11:00 988,9 76,3 12,1 4,3
20 23.2.2024 10:30 989,2 74,7 12,2 281 8
21 23.2.2024 10:00 989,2 75,7 12,1 277,3 7,9
22 23.2.2024 09:30 989,5 77,7 11,7 303,5 5
23 23.2.2024 09:00 990,2 81 11,5 225 4,9
24 23.2.2024 08:30 990,5 82,7 11 270 7
25 23.2.2024 08:00 991,2 80,7 10,7 221,7 3,7
26 23.2.2024 07:30 991,2 77,7 10,3 274,4 3,2
27 23.2.2024 07:00 991,2 82 9,7 223,3 3
28 23.2.2024 06:30 991,2 88 9,1 281 6,2
29 23.2.2024 06:00 992,2 92 8,7 270 3
30 23.2.2024 05:30 992,2 93,7 8,9 213,5 3,6
31 23.2.2024 05:00 992,8 93,7 9 189,4 1,8
32 23.2.2024 04:30 993,1 92 9,1 191 1,7
33 23.2.2024 04:00 993,1 92 8,8 299,6 2,4
34 23.2.2024 03:30 993,8 93,3 8,8 247,5 3,4
35 23.2.2024 03:00 994,1 93 8,9 202 3,2
36 23.2.2024 02:30 994,8 91,7 9,1 180 3
37 23.2.2024 02:00 994,5 91,7 9,1 180 5
38 23.2.2024 01:30 995,1 93,3 9,1 230,8 2,6
39 23.2.2024 01:00 995,4 93,3 9,2 2,3
40 23.2.2024 00:30 996,1 93,7 9,1 180 3
41 23.2.2024 00:00 996,1 93,3 9,1 236 2,4
42 22.2.2024 23:30 997,1 92,3 9,3 270 2,6
43 22.2.2024 23:00 997,1 91,7 9,6 191 3,7
44 22.2.2024 22:30 996,4 85,3 10,4 225 9
45 22.2.2024 22:00 996,1 82,7 10,9 7,9
46 22.2.2024 21:30 997,1 86,5 11,2 225 6,5
47 22.2.2024 21:00 997,1 84,7 10,9 236 4,3
48 22.2.2024 20:30 997,1 84 10,7 202,5 4